Time;durP1;ratioP1;P1;durP2;ratioP2;P2;SDS_P1;SDS_P2;PMS_P1;PMS_P2;Temp;Humidity;BMP_temperature;BMP_pressure;BME280_temperature;BME280_humidity;BME280_pressure;Samples;Min_cycle;Max_cycle;Signal;HPM_P1;HPM_P2
2024/01/11 00:00:48;;;;;;;45.97;31.20;;;-1.80;99.90;;;;;;5071274;28;20477;-67
2024/01/11 00:03:14;;;;;;;52.37;33.60;;;-1.70;99.90;;;;;;5073395;28;20492;-68
2024/01/11 00:05:41;;;;;;;46.80;32.20;;;-1.70;99.90;;;;;;5073149;28;20249;-68
2024/01/11 00:08:07;;;;;;;45.90;32.03;;;-1.70;99.90;;;;;;5073400;28;20400;-67
2024/01/11 00:10:33;;;;;;;49.60;33.93;;;-1.70;99.90;;;;;;5072842;28;20798;-68
2024/01/11 00:12:58;;;;;;;49.10;34.00;;;-1.70;99.90;;;;;;5073305;28;20247;-67
2024/01/11 00:15:24;;;;;;;44.10;30.70;;;-1.70;99.90;;;;;;5074946;28;20172;-67
2024/01/11 00:17:49;;;;;;;48.23;32.77;;;-1.60;99.90;;;;;;5076787;28;20194;-66
2024/01/11 00:20:15;;;;;;;49.40;32.30;;;-1.70;99.90;;;;;;5076654;28;20699;-68
2024/01/11 00:22:41;;;;;;;51.50;34.40;;;-1.60;99.90;;;;;;5058715;28;20173;-68
2024/01/11 00:25:07;;;;;;;47.67;32.60;;;-1.70;99.90;;;;;;5077452;28;20173;-68
2024/01/11 00:27:33;;;;;;;45.37;32.40;;;-1.80;99.90;;;;;;5076770;28;20520;-68
2024/01/11 00:29:58;;;;;;;46.87;33.23;;;-1.80;99.90;;;;;;5076712;28;20550;-67
2024/01/11 00:32:24;;;;;;;50.37;35.57;;;-1.80;99.90;;;;;;5076913;28;20396;-68
2024/01/11 00:34:49;;;;;;;48.20;35.73;;;-1.90;99.90;;;;;;5076684;28;20166;-68
2024/01/11 00:37:16;;;;;;;42.37;31.67;;;-2.00;99.90;;;;;;5076666;28;20200;-68
2024/01/11 00:39:41;;;;;;;49.47;33.20;;;-2.00;99.90;;;;;;5076595;28;20213;-66
2024/01/11 00:42:07;;;;;;;49.70;35.13;;;-1.90;99.90;;;;;;5076512;28;20400;-67
2024/01/11 00:44:32;;;;;;;47.97;31.80;;;-1.90;99.90;;;;;;5076693;28;20669;-67
2024/01/11 00:46:58;;;;;;;62.30;34.53;;;-1.90;99.90;;;;;;5076590;28;20579;-68
2024/01/11 00:49:24;;;;;;;43.83;32.47;;;-1.80;99.90;;;;;;5076690;28;20166;-68
2024/01/11 00:51:49;;;;;;;53.80;35.07;;;-1.80;99.90;;;;;;5076754;28;20174;-68
2024/01/11 00:54:15;;;;;;;41.83;32.30;;;-1.80;99.90;;;;;;5076589;28;20704;-69
2024/01/11 00:56:40;;;;;;;48.67;34.20;;;-1.80;99.90;;;;;;5076310;28;20192;-67
2024/01/11 00:59:06;;;;;;;45.53;33.50;;;-1.90;99.90;;;;;;5076662;28;20171;-67
2024/01/11 01:01:32;;;;;;;49.60;31.20;;;-1.80;99.90;;;;;;5076251;28;20558;-68
2024/01/11 01:03:58;;;;;;;56.63;34.80;;;-1.80;99.90;;;;;;5076143;28;20207;-68
2024/01/11 01:06:24;;;;;;;47.63;32.93;;;-1.70;99.90;;;;;;5076144;28;20174;-67
2024/01/11 01:08:49;;;;;;;52.30;33.97;;;-1.80;99.90;;;;;;5076244;28;20752;-67
2024/01/11 01:11:15;;;;;;;47.43;32.07;;;-1.90;99.90;;;;;;5076128;28;20196;-67
2024/01/11 01:13:40;;;;;;;53.60;34.60;;;-1.90;99.90;;;;;;5076541;28;20162;-68
2024/01/11 01:16:06;;;;;;;54.30;35.93;;;-2.00;99.90;;;;;;5058575;28;20161;-68
2024/01/11 01:18:32;;;;;;;52.50;34.43;;;-2.00;99.90;;;;;;5076232;28;20197;-68
2024/01/11 01:20:57;;;;;;;48.37;34.23;;;-2.00;99.90;;;;;;5075704;28;20202;-68
2024/01/11 01:23:23;;;;;;;56.23;35.23;;;-2.00;99.90;;;;;;5075994;28;20170;-67
2024/01/11 01:25:49;;;;;;;55.70;37.17;;;-2.10;99.90;;;;;;5075823;28;20189;-68
2024/01/11 01:28:14;;;;;;;50.00;34.10;;;-2.00;99.90;;;;;;5075811;28;20213;-68
2024/01/11 01:30:40;;;;;;;54.40;33.23;;;-2.00;99.90;;;;;;5075724;28;20197;-67
2024/01/11 01:33:06;;;;;;;52.97;34.80;;;-2.10;99.90;;;;;;5075327;28;20170;-68
2024/01/11 01:35:32;;;;;;;52.27;34.80;;;-2.10;99.90;;;;;;5075649;28;20166;-68
2024/01/11 01:37:57;;;;;;;53.03;34.83;;;-2.00;99.90;;;;;;5075698;28;20480;-68
2024/01/11 01:40:23;;;;;;;49.10;30.90;;;-1.90;99.90;;;;;;5075493;28;20279;-68
2024/01/11 01:42:48;;;;;;;52.83;32.87;;;-1.90;99.90;;;;;;5075228;28;20528;-68
2024/01/11 01:45:15;;;;;;;49.30;32.20;;;-2.00;99.90;;;;;;5075122;28;20174;-67
2024/01/11 01:47:42;;;;;;;49.63;32.27;;;-2.00;99.90;;;;;;5075177;28;20189;-68
2024/01/11 01:50:10;;;;;;;49.10;35.33;;;-2.10;99.90;;;;;;5075333;28;21009;-69
2024/01/11 01:52:37;;;;;;;51.20;34.67;;;-2.10;99.90;;;;;;5075607;28;20419;-67
2024/01/11 01:55:05;;;;;;;56.57;36.43;;;-2.10;99.90;;;;;;5075970;28;20420;-67
2024/01/11 01:57:33;;;;;;;50.73;34.67;;;-2.10;99.90;;;;;;5074668;28;20476;-69
2024/01/11 01:59:59;;;;;;;47.93;34.10;;;-2.00;99.90;;;;;;5075096;28;20416;-68
2024/01/11 02:02:25;;;;;;;53.97;34.53;;;-2.00;99.90;;;;;;5075199;28;20404;-68
2024/01/11 02:04:51;;;;;;;46.67;32.10;;;-2.00;99.90;;;;;;5075230;28;20766;-68
2024/01/11 02:07:18;;;;;;;51.17;34.10;;;-2.00;99.90;;;;;;5075283;28;20423;-67
2024/01/11 02:09:44;;;;;;;49.67;35.80;;;-2.00;99.90;;;;;;5075065;28;20862;-67
2024/01/11 02:12:12;;;;;;;51.37;34.83;;;-2.10;99.90;;;;;;5075349;28;20436;-69
2024/01/11 02:14:38;;;;;;;51.47;33.00;;;-2.10;99.90;;;;;;5075027;28;20540;-68
2024/01/11 02:17:04;;;;;;;52.53;36.77;;;-2.10;99.90;;;;;;5075029;28;20440;-67
2024/01/11 02:19:30;;;;;;;48.03;33.20;;;-2.10;99.90;;;;;;5074511;28;20169;-68
2024/01/11 02:22:00;;;;;;;53.23;35.27;;;-2.10;99.90;;;;;;5075373;28;20147;-68
2024/01/11 02:24:26;;;;;;;52.13;35.50;;;-2.10;99.90;;;;;;5075039;28;20372;-68
2024/01/11 02:27:05;;;;;;;50.47;32.30;;;-2.10;99.90;;;;;;5074702;28;20470;-67
2024/01/11 02:29:31;;;;;;;51.30;33.77;;;-2.10;99.90;;;;;;5056516;28;20398;-68
2024/01/11 02:31:59;;;;;;;53.70;35.73;;;-2.10;99.90;;;;;;5074697;28;20403;-68
2024/01/11 02:34:27;;;;;;;54.30;36.60;;;-2.10;99.90;;;;;;5074514;28;20817;-67
2024/01/11 02:36:54;;;;;;;51.00;35.70;;;-2.10;99.90;;;;;;5074432;28;20452;-67
2024/01/11 02:39:22;;;;;;;53.10;35.07;;;-2.10;99.90;;;;;;5074074;28;20488;-67
2024/01/11 02:41:49;;;;;;;50.00;32.90;;;-2.20;99.90;;;;;;5074919;28;20423;-67
2024/01/11 02:44:15;;;;;;;60.10;35.37;;;-2.20;99.90;;;;;;5074642;28;20400;-68
2024/01/11 02:46:41;;;;;;;58.07;36.27;;;-2.20;99.90;;;;;;5074464;28;20411;-68
2024/01/11 02:49:06;;;;;;;57.67;38.07;;;-2.20;99.90;;;;;;5074437;28;20597;-66
2024/01/11 02:51:32;;;;;;;51.57;34.27;;;-2.20;99.90;;;;;;5074355;28;20200;-67
2024/01/11 02:53:58;;;;;;;45.87;34.20;;;-2.30;99.90;;;;;;5074390;28;20166;-67
2024/01/11 02:56:23;;;;;;;53.20;38.20;;;-2.40;99.90;;;;;;5074085;28;20644;-67
2024/01/11 02:58:49;;;;;;;57.17;35.90;;;-2.40;99.90;;;;;;5074083;28;20167;-68
2024/01/11 03:01:15;;;;;;;53.83;34.43;;;-2.40;99.90;;;;;;5074056;28;20192;-68
2024/01/11 03:03:41;;;;;;;47.50;35.90;;;-2.40;99.90;;;;;;5074211;28;20169;-68
2024/01/11 03:06:07;;;;;;;60.83;39.40;;;-2.40;99.90;;;;;;5074132;28;20396;-69
2024/01/11 03:08:32;;;;;;;48.50;34.20;;;-2.40;99.90;;;;;;5056126;28;20184;-66
2024/01/11 03:10:58;;;;;;;55.67;36.77;;;-2.30;99.90;;;;;;5073739;28;20218;-68
2024/01/11 03:13:24;;;;;;;54.20;37.07;;;-2.30;99.90;;;;;;5074219;28;20195;-65
2024/01/11 03:15:49;;;;;;;54.90;37.20;;;-2.30;99.90;;;;;;5074016;28;20166;-68
2024/01/11 03:18:16;;;;;;;52.30;38.73;;;-2.40;99.90;;;;;;5073479;28;20585;-68
2024/01/11 03:20:42;;;;;;;60.97;40.40;;;-2.40;99.90;;;;;;5074060;28;20464;-68
2024/01/11 03:23:07;;;;;;;54.23;37.47;;;-2.40;99.90;;;;;;5056043;28;20182;-67
2024/01/11 03:25:33;;;;;;;55.60;36.77;;;-2.40;99.90;;;;;;5055631;28;20175;-67
2024/01/11 03:27:59;;;;;;;55.60;37.60;;;-2.40;99.90;;;;;;5073802;28;20173;-67
2024/01/11 03:30:25;;;;;;;59.27;41.17;;;-2.40;99.90;;;;;;5073689;28;20198;-67
2024/01/11 03:32:50;;;;;;;57.97;38.87;;;-2.30;99.90;;;;;;5073411;28;20407;-66
2024/01/11 03:35:17;;;;;;;50.67;36.83;;;-2.30;99.90;;;;;;5073530;28;20178;-68
2024/01/11 03:37:43;;;;;;;49.97;35.40;;;-2.30;99.90;;;;;;5055606;28;20206;-68
2024/01/11 03:40:09;;;;;;;56.10;38.43;;;-2.30;99.90;;;;;;5072931;28;20443;-68
2024/01/11 03:42:34;;;;;;;51.63;38.53;;;-2.30;99.90;;;;;;5073432;28;20189;-65
2024/01/11 03:45:00;;;;;;;55.87;38.80;;;-2.30;99.90;;;;;;5073374;28;20170;-67
2024/01/11 03:47:26;;;;;;;49.93;33.93;;;-2.40;99.90;;;;;;5073437;28;20228;-67
2024/01/11 03:49:51;;;;;;;67.60;37.17;;;-2.50;99.90;;;;;;5073033;28;20572;-67
2024/01/11 03:52:17;;;;;;;57.93;39.20;;;-2.50;99.90;;;;;;5073226;28;20237;-68
2024/01/11 03:54:42;;;;;;;62.50;40.10;;;-2.40;99.90;;;;;;5074305;28;20275;-68
2024/01/11 03:57:08;;;;;;;55.90;36.70;;;-2.40;99.90;;;;;;5073234;28;20680;-68
2024/01/11 03:59:35;;;;;;;50.07;35.57;;;-2.50;99.90;;;;;;5072574;28;20170;-68
2024/01/11 04:02:00;;;;;;;53.80;35.27;;;-2.50;99.90;;;;;;5073489;28;20162;-67
2024/01/11 04:04:26;;;;;;;52.50;36.00;;;-2.40;99.90;;;;;;5073315;28;20474;-67
2024/01/11 04:06:52;;;;;;;48.27;35.90;;;-2.40;99.90;;;;;;5073456;28;20174;-67
2024/01/11 04:09:18;;;;;;;50.03;33.47;;;-2.40;99.90;;;;;;5072992;28;20166;-66
2024/01/11 04:11:43;;;;;;;51.23;35.17;;;-2.40;99.90;;;;;;5073259;28;20493;-67
2024/01/11 04:14:09;;;;;;;52.73;36.00;;;-2.40;99.90;;;;;;5073510;28;20633;-67
2024/01/11 04:16:40;;;;;;;53.30;36.97;;;-2.40;99.90;;;;;;5073296;28;20170;-68
2024/01/11 04:19:06;;;;;;;51.07;33.47;;;-2.50;99.90;;;;;;5073212;28;20238;-68
2024/01/11 04:21:32;;;;;;;59.57;38.00;;;-2.60;99.90;;;;;;5072922;28;20486;-68
2024/01/11 04:23:57;;;;;;;52.97;35.30;;;-2.70;99.90;;;;;;5073441;28;20612;-67
2024/01/11 04:26:23;;;;;;;59.97;38.80;;;-2.70;99.90;;;;;;5072975;28;20162;-68
2024/01/11 04:28:49;;;;;;;59.67;35.70;;;-2.70;99.90;;;;;;5073330;28;20559;-68
2024/01/11 04:31:18;;;;;;;48.50;34.67;;;-2.70;99.90;;;;;;5073038;28;20228;-68
2024/01/11 04:33:45;;;;;;;53.03;35.63;;;-2.60;99.90;;;;;;5072880;28;20400;-68
2024/01/11 04:36:10;;;;;;;55.13;36.93;;;-2.60;99.90;;;;;;5073150;28;20416;-67
2024/01/11 04:38:39;;;;;;;59.20;38.10;;;-2.70;99.90;;;;;;5054660;28;20541;-68
2024/01/11 04:41:12;;;;;;;52.07;35.17;;;-2.70;99.90;;;;;;5072637;28;20182;-67
2024/01/11 04:43:42;;;;;;;50.40;34.47;;;-2.60;99.90;;;;;;5072769;28;20471;-67
2024/01/11 04:46:22;;;;;;;53.90;37.23;;;-2.60;99.90;;;;;;5072643;28;20392;-67
2024/01/11 04:48:49;;;;;;;52.70;36.70;;;-2.70;99.90;;;;;;5073134;28;20400;-68
2024/01/11 04:51:16;;;;;;;49.13;34.47;;;-2.60;99.90;;;;;;5072679;28;20934;-68
2024/01/11 04:53:43;;;;;;;51.70;37.10;;;-2.60;99.90;;;;;;5072728;28;20418;-68
2024/01/11 04:56:11;;;;;;;53.73;35.50;;;-2.60;99.90;;;;;;5072801;28;20422;-68
2024/01/11 04:58:38;;;;;;;53.20;35.60;;;-2.60;99.90;;;;;;5072915;28;20534;-68
2024/01/11 05:01:05;;;;;;;59.00;38.60;;;-2.60;99.90;;;;;;5073954;28;20428;-66
2024/01/11 05:03:31;;;;;;;43.97;32.93;;;-2.60;99.90;;;;;;5076207;28;20400;-68
2024/01/11 05:05:58;;;;;;;55.30;36.07;;;-2.50;99.90;;;;;;5076636;28;20404;-67
2024/01/11 05:08:25;;;;;;;54.10;36.50;;;-2.50;99.90;;;;;;5076740;28;20481;-67
2024/01/11 05:10:50;;;;;;;51.57;36.13;;;-2.60;99.90;;;;;;5075970;28;20427;-67
2024/01/11 05:13:17;;;;;;;59.93;35.93;;;-2.70;99.90;;;;;;5058364;28;20404;-67
2024/01/11 05:15:42;;;;;;;53.57;35.33;;;-2.60;99.90;;;;;;5076522;28;20166;-68
2024/01/11 05:18:08;;;;;;;58.87;38.40;;;-2.60;99.90;;;;;;5076106;28;20475;-67
2024/01/11 05:20:34;;;;;;;50.57;33.03;;;-2.60;99.90;;;;;;5075884;28;20354;-67
2024/01/11 05:23:00;;;;;;;52.50;36.53;;;-2.70;99.90;;;;;;5076345;28;20253;-68
2024/01/11 05:25:26;;;;;;;49.90;33.80;;;-2.60;99.90;;;;;;5076007;28;20162;-68
2024/01/11 05:27:52;;;;;;;57.20;36.40;;;-2.60;99.90;;;;;;5075727;28;20410;-68
2024/01/11 05:30:17;;;;;;;44.53;33.73;;;-2.60;99.90;;;;;;5075815;28;20201;-67
2024/01/11 05:32:43;;;;;;;56.73;35.73;;;-2.60;99.90;;;;;;5076197;28;20247;-68
2024/01/11 05:35:10;;;;;;;60.13;36.20;;;-2.60;99.90;;;;;;5075783;28;20170;-68
2024/01/11 05:37:36;;;;;;;51.07;34.97;;;-2.60;99.90;;;;;;5057626;28;20544;-67
2024/01/11 05:40:01;;;;;;;56.60;36.37;;;-2.70;99.90;;;;;;5075653;28;20439;-68
2024/01/11 05:42:27;;;;;;;59.63;38.03;;;-2.60;99.90;;;;;;5075762;28;20192;-68
2024/01/11 05:44:53;;;;;;;59.27;36.97;;;-2.60;99.90;;;;;;5075076;28;20182;-68
2024/01/11 05:47:18;;;;;;;62.57;39.17;;;-2.60;99.90;;;;;;5075244;28;20541;-68
2024/01/11 05:49:45;;;;;;;59.97;37.83;;;-2.60;99.90;;;;;;5057378;28;20194;-68
2024/01/11 05:52:10;;;;;;;55.57;34.77;;;-2.60;99.90;;;;;;5075309;28;20649;-67
2024/01/11 05:54:36;;;;;;;56.70;39.00;;;-2.70;99.90;;;;;;5075212;28;20452;-68
2024/01/11 05:57:02;;;;;;;56.67;38.17;;;-2.70;99.90;;;;;;5075733;28;20209;-68
2024/01/11 05:59:28;;;;;;;53.53;36.57;;;-2.80;99.90;;;;;;5075232;28;20173;-68
2024/01/11 06:01:53;;;;;;;53.93;35.93;;;-2.90;99.90;;;;;;5075457;28;20404;-68
2024/01/11 06:04:19;;;;;;;64.50;40.40;;;-2.90;99.90;;;;;;5057649;28;20177;-68
2024/01/11 06:06:44;;;;;;;58.07;38.93;;;-2.90;99.90;;;;;;5075350;28;20530;-68
2024/01/11 06:09:10;;;;;;;54.20;37.63;;;-3.00;99.90;;;;;;5075365;28;20170;-69
2024/01/11 06:11:36;;;;;;;61.13;37.77;;;-3.00;99.90;;;;;;5074607;28;20185;-68
2024/01/11 06:14:02;;;;;;;58.43;38.50;;;-2.80;99.90;;;;;;5055704;28;20648;-68
2024/01/11 06:16:28;;;;;;;58.77;41.13;;;-2.80;99.90;;;;;;5075105;28;20174;-68
2024/01/11 06:18:54;;;;;;;52.20;37.20;;;-2.70;99.90;;;;;;5074846;28;20400;-67
2024/01/11 06:21:20;;;;;;;57.57;39.70;;;-2.80;99.90;;;;;;5056598;28;21047;-68
2024/01/11 06:23:45;;;;;;;57.33;40.50;;;-2.80;99.90;;;;;;5074793;28;20174;-67
2024/01/11 06:26:11;;;;;;;64.03;41.80;;;-2.80;99.90;;;;;;5074941;28;20166;-68
2024/01/11 06:28:37;;;;;;;51.40;37.37;;;-2.90;99.90;;;;;;5074657;28;20166;-68
2024/01/11 06:31:03;;;;;;;67.33;40.13;;;-2.90;99.90;;;;;;5074606;28;20312;-67
2024/01/11 06:33:29;;;;;;;53.77;38.90;;;-2.90;99.90;;;;;;5074408;28;20161;-69
2024/01/11 06:35:55;;;;;;;59.47;38.83;;;-2.90;99.90;;;;;;5075162;28;20397;-67
2024/01/11 06:38:21;;;;;;;58.13;37.47;;;-2.80;99.90;;;;;;5074578;28;20187;-67
2024/01/11 06:40:48;;;;;;;63.77;41.57;;;-2.80;99.90;;;;;;5074633;28;20435;-69
2024/01/11 06:43:14;;;;;;;59.13;38.20;;;-2.80;99.90;;;;;;5074406;28;20162;-68
2024/01/11 06:45:40;;;;;;;55.00;38.07;;;-2.70;99.90;;;;;;5074980;28;20738;-67
2024/01/11 06:48:06;;;;;;;53.70;35.60;;;-2.70;99.90;;;;;;5074730;28;20462;-66
2024/01/11 06:50:31;;;;;;;59.73;38.40;;;-2.70;99.90;;;;;;5074907;28;20478;-66
2024/01/11 06:52:57;;;;;;;62.97;38.83;;;-2.70;99.90;;;;;;5074506;28;20825;-69
2024/01/11 06:55:23;;;;;;;52.27;36.00;;;-2.70;99.90;;;;;;5074219;28;20209;-68
2024/01/11 06:57:48;;;;;;;60.43;39.40;;;-2.70;99.90;;;;;;5074689;28;20280;-67
2024/01/11 07:00:14;;;;;;;62.30;39.17;;;-2.70;99.90;;;;;;5056399;28;20188;-68
2024/01/11 07:02:40;;;;;;;58.90;37.40;;;-2.70;99.90;;;;;;5074710;28;20212;-68
2024/01/11 07:05:06;;;;;;;57.30;39.47;;;-2.60;99.90;;;;;;5074186;28;20629;-68
2024/01/11 07:07:32;;;;;;;53.40;36.73;;;-2.70;99.90;;;;;;5057421;28;20589;-68
2024/01/11 07:09:59;;;;;;;60.60;39.53;;;-2.70;99.90;;;;;;5074890;28;20960;-68
2024/01/11 07:12:25;;;;;;;57.97;37.47;;;-2.60;99.90;;;;;;5074748;28;20400;-70
2024/01/11 07:14:51;;;;;;;56.40;37.20;;;-2.60;99.90;;;;;;5073846;28;20766;-70
2024/01/11 07:17:17;;;;;;;54.83;37.57;;;-2.70;99.90;;;;;;5074212;28;20965;-70
2024/01/11 07:19:43;;;;;;;52.23;35.67;;;-2.70;99.90;;;;;;5055635;28;20433;-69
2024/01/11 07:22:09;;;;;;;55.83;35.67;;;-2.60;99.90;;;;;;5074049;28;20142;-71
2024/01/11 07:24:37;;;;;;;58.80;38.67;;;-2.60;99.90;;;;;;5073452;28;20475;-71
2024/01/11 07:27:06;;;;;;;59.20;38.07;;;-2.70;99.90;;;;;;5074135;28;20185;-71
2024/01/11 07:29:33;;;;;;;59.83;37.73;;;-2.70;99.90;;;;;;5073749;28;21028;-71
2024/01/11 07:31:59;;;;;;;62.20;40.93;;;-2.70;99.90;;;;;;5055146;28;20503;-70
2024/01/11 07:34:25;;;;;;;57.97;36.67;;;-2.60;99.90;;;;;;5073424;28;20408;-68
2024/01/11 07:36:52;;;;;;;54.53;36.17;;;-2.60;99.90;;;;;;5074543;28;20942;-68
2024/01/11 07:39:18;;;;;;;54.43;36.30;;;-2.50;99.90;;;;;;5073144;28;20900;-69
2024/01/11 07:41:43;;;;;;;56.60;37.37;;;-2.50;99.90;;;;;;5072887;28;20432;-69
2024/01/11 07:44:09;;;;;;;55.20;37.57;;;-2.40;99.90;;;;;;5054962;28;20169;-70
2024/01/11 07:46:34;;;;;;;51.83;35.53;;;-2.40;99.90;;;;;;5073208;28;20197;-70
2024/01/11 07:49:00;;;;;;;56.77;39.73;;;-2.50;99.90;;;;;;5072395;28;20181;-71
2024/01/11 07:51:26;;;;;;;59.33;38.70;;;-2.50;99.90;;;;;;5055100;28;20189;-70
2024/01/11 07:53:52;;;;;;;57.90;40.90;;;-2.70;99.90;;;;;;5072885;28;20401;-70
2024/01/11 07:56:17;;;;;;;54.43;38.67;;;-2.70;99.90;;;;;;5073066;28;20407;-70
2024/01/11 07:58:43;;;;;;;52.90;35.90;;;-2.60;99.90;;;;;;5072928;28;20565;-70
2024/01/11 08:01:09;;;;;;;54.83;35.57;;;-2.50;99.90;;;;;;5073161;28;20186;-69
2024/01/11 08:03:35;;;;;;;58.50;39.53;;;-2.40;99.90;;;;;;5073132;28;20166;-69
2024/01/11 08:06:01;;;;;;;63.60;41.53;;;-2.50;99.90;;;;;;5073104;28;20389;-69
2024/01/11 08:08:27;;;;;;;55.20;36.70;;;-2.50;99.90;;;;;;5073494;28;20166;-69
2024/01/11 08:10:53;;;;;;;54.60;37.50;;;-2.40;99.90;;;;;;5072689;28;20469;-69
2024/01/11 08:13:21;;;;;;;59.50;38.57;;;-2.40;99.90;;;;;;5072737;28;20406;-70
2024/01/11 08:15:46;;;;;;;60.30;39.20;;;-2.30;99.90;;;;;;5073054;28;20158;-70
2024/01/11 08:18:13;;;;;;;57.50;39.73;;;-2.30;99.90;;;;;;5073001;28;21010;-69
2024/01/11 08:20:39;;;;;;;51.30;34.80;;;-2.40;99.90;;;;;;5072689;28;20248;-69
2024/01/11 08:23:05;;;;;;;62.67;40.60;;;-2.40;99.90;;;;;;5072819;28;20454;-69
2024/01/11 08:25:30;;;;;;;59.13;39.07;;;-2.30;99.90;;;;;;5072638;28;20439;-69
2024/01/11 08:27:56;;;;;;;50.80;37.33;;;-2.20;99.90;;;;;;5072832;28;20245;-70
2024/01/11 08:30:22;;;;;;;53.97;38.10;;;-2.00;99.90;;;;;;5072801;28;20430;-70
2024/01/11 08:32:47;;;;;;;52.40;36.50;;;-2.00;99.90;;;;;;5072562;28;20170;-73
2024/01/11 08:35:13;;;;;;;52.63;34.93;;;-1.90;99.90;;;;;;5072895;28;20408;-70
2024/01/11 08:37:39;;;;;;;53.37;37.50;;;-1.90;99.90;;;;;;5076361;28;20203;-70
2024/01/11 08:40:05;;;;;;;58.53;42.40;;;-1.80;99.90;;;;;;5076435;28;20821;-69
2024/01/11 08:42:32;;;;;;;55.43;41.10;;;-1.90;99.90;;;;;;5076463;28;20205;-70
2024/01/11 08:44:57;;;;;;;55.80;37.53;;;-1.90;99.90;;;;;;5075996;28;20401;-70
2024/01/11 08:47:23;;;;;;;61.53;40.00;;;-1.90;99.90;;;;;;5076441;28;20453;-70
2024/01/11 08:49:49;;;;;;;51.90;36.10;;;-1.90;99.90;;;;;;5076101;28;20563;-69
2024/01/11 08:52:14;;;;;;;63.33;39.73;;;-1.80;99.90;;;;;;5076358;28;20658;-70
2024/01/11 08:54:40;;;;;;;59.83;41.77;;;-1.70;99.90;;;;;;5076067;28;20465;-69
2024/01/11 08:57:06;;;;;;;55.47;38.87;;;-1.60;99.90;;;;;;5076315;28;20282;-70
2024/01/11 08:59:32;;;;;;;60.43;38.60;;;-1.60;99.90;;;;;;5075762;28;20222;-70
2024/01/11 09:01:58;;;;;;;53.87;38.83;;;-1.60;99.90;;;;;;5076036;28;20401;-70
2024/01/11 09:04:23;;;;;;;60.90;36.67;;;-1.70;99.90;;;;;;5076295;28;20422;-69
2024/01/11 09:06:49;;;;;;;51.83;38.57;;;-1.70;99.90;;;;;;5075792;28;20537;-69
2024/01/11 09:09:15;;;;;;;57.37;40.30;;;-1.70;99.90;;;;;;5076078;28;20171;-73
2024/01/11 09:11:41;;;;;;;55.53;37.77;;;-1.70;99.90;;;;;;5075732;28;20185;-71
2024/01/11 09:14:07;;;;;;;54.33;37.63;;;-1.60;99.90;;;;;;5075975;28;20396;-71
2024/01/11 09:16:33;;;;;;;63.63;43.30;;;-1.50;99.90;;;;;;5075960;28;20172;-68
2024/01/11 09:19:01;;;;;;;51.13;37.03;;;-1.40;99.90;;;;;;5075647;28;20905;-69
2024/01/11 09:21:27;;;;;;;50.20;36.87;;;-1.20;99.90;;;;;;5075881;28;20228;-70
2024/01/11 09:23:53;;;;;;;58.70;39.83;;;-1.10;99.90;;;;;;5075505;28;20400;-70
2024/01/11 09:26:18;;;;;;;53.00;40.40;;;-1.00;99.90;;;;;;5075566;28;20632;-70
2024/01/11 09:28:45;;;;;;;51.93;36.63;;;-1.00;99.90;;;;;;5075578;28;20166;-68
2024/01/11 09:31:11;;;;;;;49.70;36.47;;;-1.00;99.90;;;;;;5075447;28;20228;-69
2024/01/11 09:33:37;;;;;;;54.20;38.20;;;-1.00;99.90;;;;;;5075475;28;20415;-70
2024/01/11 09:36:03;;;;;;;51.50;34.53;;;-0.80;99.90;;;;;;5075459;28;20545;-70
2024/01/11 09:38:29;;;;;;;54.00;36.77;;;-1.20;99.90;;;;;;5075394;28;20454;-73
2024/01/11 09:41:07;;;;;;;49.50;36.30;;;-1.60;99.90;;;;;;5075212;28;20914;-70
2024/01/11 09:43:34;;;;;;;53.47;39.40;;;-1.30;99.90;;;;;;5075813;28;20252;-72
2024/01/11 09:46:04;;;;;;;46.10;35.87;;;-1.30;99.90;;;;;;5075150;28;20408;-70
2024/01/11 09:48:35;;;;;;;59.20;39.00;;;-1.20;99.90;;;;;;5075186;28;20494;-70
2024/01/11 09:51:09;;;;;;;54.03;39.60;;;-1.30;99.90;;;;;;5074461;28;20430;-70
2024/01/11 09:53:38;;;;;;;53.77;40.67;;;-1.50;99.90;;;;;;5074967;28;20396;-70
2024/01/11 09:56:07;;;;;;;52.67;39.37;;;-1.30;99.90;;;;;;5074712;28;20417;-71
2024/01/11 09:58:36;;;;;;;51.93;37.47;;;-1.20;99.90;;;;;;5075174;28;20453;-69
2024/01/11 10:01:02;;;;;;;58.43;37.43;;;-1.10;99.90;;;;;;5074817;28;20830;-70
2024/01/11 10:03:28;;;;;;;52.63;39.10;;;-0.80;99.90;;;;;;5074976;28;20400;-71
2024/01/11 10:05:57;;;;;;;53.47;37.20;;;-0.90;99.90;;;;;;5075318;28;20461;-69
2024/01/11 10:08:23;;;;;;;57.97;38.30;;;-1.00;99.90;;;;;;5075377;28;20414;-69
2024/01/11 10:10:49;;;;;;;50.93;35.53;;;-0.80;99.90;;;;;;5074908;28;20426;-69
2024/01/11 10:13:18;;;;;;;52.70;38.30;;;-0.90;99.90;;;;;;5075488;28;20415;-68
2024/01/11 10:15:44;;;;;;;54.30;37.67;;;-1.00;99.90;;;;;;5074823;28;20411;-69
2024/01/11 10:18:09;;;;;;;53.20;38.33;;;-1.00;99.90;;;;;;5074565;28;20470;-70
2024/01/11 10:20:35;;;;;;;54.03;37.80;;;-0.90;99.90;;;;;;5074369;28;20323;-70
2024/01/11 10:23:02;;;;;;;57.20;37.20;;;-0.80;99.90;;;;;;5074358;28;20400;-71
2024/01/11 10:25:28;;;;;;;47.73;34.73;;;-0.50;99.90;;;;;;5056504;28;20169;-70
2024/01/11 10:27:54;;;;;;;59.23;41.07;;;-0.30;99.90;;;;;;5074273;28;20901;-72
2024/01/11 10:30:22;;;;;;;55.53;39.03;;;-0.10;99.90;;;;;;5074207;28;20517;-70
2024/01/11 10:32:48;;;;;;;53.50;35.37;;;0.10;99.90;;;;;;5074655;28;20648;-70
2024/01/11 10:35:14;;;;;;;52.37;36.40;;;0.00;99.90;;;;;;5074107;28;20414;-70
2024/01/11 10:37:42;;;;;;;53.53;37.07;;;0.10;99.90;;;;;;5074275;28;20447;-69
2024/01/11 10:40:15;;;;;;;50.03;36.30;;;0.00;99.90;;;;;;5056144;28;20429;-69
2024/01/11 10:42:45;;;;;;;57.70;39.97;;;-0.20;99.90;;;;;;5074046;28;20388;-70
2024/01/11 10:45:15;;;;;;;54.87;36.93;;;0.10;99.90;;;;;;5073857;28;20396;-69
2024/01/11 10:47:48;;;;;;;52.57;37.80;;;0.30;99.90;;;;;;5074547;28;20398;-70
2024/01/11 10:50:16;;;;;;;50.73;37.93;;;0.40;99.90;;;;;;5074153;28;20447;-70
2024/01/11 10:52:56;;;;;;;55.90;39.77;;;0.60;99.90;;;;;;5055740;28;20599;-70
2024/01/11 10:55:23;;;;;;;53.90;39.20;;;0.60;99.90;;;;;;5073990;28;20474;-70
2024/01/11 10:57:50;;;;;;;52.63;39.03;;;0.60;99.90;;;;;;5073577;28;20451;-72
2024/01/11 11:00:18;;;;;;;58.40;38.07;;;0.20;99.90;;;;;;5073379;28;20439;-72
2024/01/11 11:02:45;;;;;;;48.40;37.27;;;0.30;99.90;;;;;;5073798;28;20427;-69
2024/01/11 11:05:13;;;;;;;51.10;37.03;;;0.20;99.90;;;;;;5073592;28;20453;-70
2024/01/11 11:07:39;;;;;;;51.17;37.27;;;0.50;99.90;;;;;;5073391;28;20925;-71
2024/01/11 11:10:07;;;;;;;52.43;36.13;;;1.70;99.90;;;;;;5073296;28;20424;-68
2024/01/11 11:12:35;;;;;;;51.30;36.10;;;3.30;99.90;;;;;;5073383;28;20971;-68
2024/01/11 11:15:02;;;;;;;51.53;38.13;;;4.20;99.90;;;;;;5073098;28;20420;-67
2024/01/11 11:17:29;;;;;;;45.80;34.90;;;4.80;99.90;;;;;;5073547;28;20448;-67
2024/01/11 11:19:54;;;;;;;44.13;33.77;;;5.90;99.90;;;;;;5072967;28;20938;-67
2024/01/11 11:22:20;;;;;;;48.03;37.13;;;6.80;99.00;;;;;;5073238;28;20388;-67
2024/01/11 11:24:46;;;;;;;41.47;34.53;;;6.80;96.70;;;;;;5073374;28;20162;-67
2024/01/11 11:27:16;;;;;;;46.47;37.70;;;7.60;95.20;;;;;;5073151;28;20715;-67
2024/01/11 11:29:41;;;;;;;43.07;34.27;;;7.10;94.20;;;;;;5073307;28;20168;-68
2024/01/11 11:32:10;;;;;;;47.67;37.33;;;8.60;94.00;;;;;;5072944;28;20411;-66
2024/01/11 11:34:44;;;;;;;47.00;35.70;;;8.40;91.60;;;;;;5073043;28;20259;-67
2024/01/11 11:37:10;;;;;;;47.23;36.07;;;8.80;91.50;;;;;;5072964;28;20480;-66
2024/01/11 11:39:36;;;;;;;47.17;37.37;;;8.90;90.60;;;;;;5073172;28;20826;-67
2024/01/11 11:42:02;;;;;;;47.80;36.43;;;8.80;90.10;;;;;;5073765;28;20327;-67
2024/01/11 11:44:29;;;;;;;39.27;33.37;;;8.90;90.20;;;;;;5073544;28;20400;-67
2024/01/11 11:46:54;;;;;;;44.27;35.53;;;9.40;89.40;;;;;;5072555;28;20404;-67
2024/01/11 11:49:20;;;;;;;41.00;34.30;;;8.20;88.50;;;;;;5073006;28;20434;-68
2024/01/11 11:51:45;;;;;;;45.50;34.23;;;8.00;90.70;;;;;;5073054;28;20244;-68
2024/01/11 11:54:11;;;;;;;42.17;33.70;;;8.90;89.80;;;;;;5072600;28;20178;-67
2024/01/11 11:56:37;;;;;;;44.40;36.60;;;9.20;87.10;;;;;;5072797;28;20171;-67
2024/01/11 11:59:03;;;;;;;44.30;33.90;;;9.70;85.50;;;;;;5073042;28;20394;-67
2024/01/11 12:01:31;;;;;;;43.93;36.07;;;10.40;83.40;;;;;;5073001;28;20867;-67
2024/01/11 12:03:57;;;;;;;39.27;33.77;;;10.70;79.90;;;;;;5072827;28;20396;-67
2024/01/11 12:06:24;;;;;;;41.77;33.63;;;11.20;78.70;;;;;;5072846;28;20477;-67
2024/01/11 12:08:52;;;;;;;40.83;34.10;;;12.10;77.30;;;;;;5073642;28;20859;-67
2024/01/11 12:11:22;;;;;;;42.00;35.50;;;12.70;71.80;;;;;;5076458;28;20416;-68
2024/01/11 12:13:49;;;;;;;41.03;35.37;;;12.10;72.60;;;;;;5076936;28;20435;-68
2024/01/11 12:16:14;;;;;;;38.43;33.83;;;12.00;70.90;;;;;;5077254;28;20408;-68
2024/01/11 12:18:41;;;;;;;39.80;32.93;;;12.50;71.50;;;;;;5076884;28;20546;-69
2024/01/11 12:21:07;;;;;;;45.00;36.43;;;13.60;68.60;;;;;;5076786;28;20682;-68
2024/01/11 12:23:34;;;;;;;42.80;36.60;;;13.10;65.30;;;;;;5077024;28;20433;-68